Karos, South Africa
Current Conditions -  °F | °C
As of 10:13 AM on Tuesday 21 Oct 2014 (Local Time) from FAUP Reporting Station
Clear Clear  
Wind Chill: 84°   Ceiling: Unl
Heat Index: 84°   Visibility: 6mi
Dew Point: 34°   Wind: 3mph
Humidity: 16%   Direction: 210°SSW
Pressure: 30"   Gusts: NA
Location:  28.42°S, 21.57°E
Report Text: FAUP 210813Z 21003KT CAVOK 29/01 Q1016 NOSIG
Loading
Personal Weather Stations






























Interactive Weather Map
Tropical Storm Tracking
New forecast layout! Learn more

10-Day Weather Forecast

Advertisements
Track Severe Weather on mobile